sensor_id;sensor_type;location;lat;lon;timestamp;temperature;humidity
42227;DHT22;27892;52.378;13.122;2022-08-21T00:00:09;23.60;83.20
42227;DHT22;27892;52.378;13.122;2022-08-21T00:02:35;23.60;83.10
42227;DHT22;27892;52.378;13.122;2022-08-21T00:05:01;23.60;82.90
42227;DHT22;27892;52.378;13.122;2022-08-21T00:07:27;23.60;82.70
42227;DHT22;27892;52.378;13.122;2022-08-21T00:09:53;23.50;82.50
42227;DHT22;27892;52.378;13.122;2022-08-21T00:12:20;23.50;82.20
42227;DHT22;27892;52.378;13.122;2022-08-21T00:14:45;23.50;82.30
42227;DHT22;27892;52.378;13.122;2022-08-21T00:17:11;23.40;82.20
42227;DHT22;27892;52.378;13.122;2022-08-21T00:19:37;23.40;82.40
42227;DHT22;27892;52.378;13.122;2022-08-21T00:22:02;23.40;82.10
42227;DHT22;27892;52.378;13.122;2022-08-21T00:24:28;23.30;82.00
42227;DHT22;27892;52.378;13.122;2022-08-21T00:26:54;23.20;81.60
42227;DHT22;27892;52.378;13.122;2022-08-21T00:29:20;23.20;81.40
42227;DHT22;27892;52.378;13.122;2022-08-21T00:31:45;23.20;81.30
42227;DHT22;27892;52.378;13.122;2022-08-21T00:34:12;23.10;80.90
42227;DHT22;27892;52.378;13.122;2022-08-21T00:36:39;23.10;80.80
42227;DHT22;27892;52.378;13.122;2022-08-21T00:39:06;23.10;80.90
42227;DHT22;27892;52.378;13.122;2022-08-21T00:41:34;23.00;80.50
42227;DHT22;27892;52.378;13.122;2022-08-21T00:44:00;23.00;80.20
42227;DHT22;27892;52.378;13.122;2022-08-21T00:46:26;23.00;80.20
42227;DHT22;27892;52.378;13.122;2022-08-21T00:48:52;23.00;80.10
42227;DHT22;27892;52.378;13.122;2022-08-21T00:51:22;22.90;79.70
42227;DHT22;27892;52.378;13.122;2022-08-21T00:53:54;22.90;79.60
42227;DHT22;27892;52.378;13.122;2022-08-21T00:56:21;22.90;79.90
42227;DHT22;27892;52.378;13.122;2022-08-21T00:58:48;22.90;79.80
42227;DHT22;27892;52.378;13.122;2022-08-21T01:01:14;22.80;79.60
42227;DHT22;27892;52.378;13.122;2022-08-21T01:03:39;22.80;79.50
42227;DHT22;27892;52.378;13.122;2022-08-21T01:06:06;22.80;79.30
42227;DHT22;27892;52.378;13.122;2022-08-21T01:08:32;22.80;79.20
42227;DHT22;27892;52.378;13.122;2022-08-21T01:10:59;22.80;79.00
42227;DHT22;27892;52.378;13.122;2022-08-21T01:13:27;22.80;79.20
42227;DHT22;27892;52.378;13.122;2022-08-21T01:15:58;22.80;79.20
42227;DHT22;27892;52.378;13.122;2022-08-21T01:18:25;22.80;79.20
42227;DHT22;27892;52.378;13.122;2022-08-21T01:23:24;22.70;79.20
42227;DHT22;27892;52.378;13.122;2022-08-21T01:25:50;22.60;79.20
42227;DHT22;27892;52.378;13.122;2022-08-21T01:28:15;22.60;79.20
42227;DHT22;27892;52.378;13.122;2022-08-21T01:30:42;22.60;79.10
42227;DHT22;27892;52.378;13.122;2022-08-21T01:33:08;22.60;79.10
42227;DHT22;27892;52.378;13.122;2022-08-21T01:35:34;22.60;79.20
42227;DHT22;27892;52.378;13.122;2022-08-21T01:38:00;22.50;79.10
42227;DHT22;27892;52.378;13.122;2022-08-21T01:40:25;22.50;79.10
42227;DHT22;27892;52.378;13.122;2022-08-21T01:42:51;22.50;79.30
42227;DHT22;27892;52.378;13.122;2022-08-21T01:45:17;22.40;79.40
42227;DHT22;27892;52.378;13.122;2022-08-21T01:47:44;22.40;79.80
42227;DHT22;27892;52.378;13.122;2022-08-21T01:50:12;22.40;79.90
42227;DHT22;27892;52.378;13.122;2022-08-21T01:52:39;22.40;80.10
42227;DHT22;27892;52.378;13.122;2022-08-21T01:55:06;22.30;80.10
42227;DHT22;27892;52.378;13.122;2022-08-21T01:57:32;22.30;80.20
42227;DHT22;27892;52.378;13.122;2022-08-21T01:59:58;22.30;80.10
42227;DHT22;27892;52.378;13.122;2022-08-21T02:02:24;22.30;80.30
42227;DHT22;27892;52.378;13.122;2022-08-21T02:04:49;22.30;80.20
42227;DHT22;27892;52.378;13.122;2022-08-21T02:07:15;22.20;80.00
42227;DHT22;27892;52.378;13.122;2022-08-21T02:09:41;22.20;80.00
42227;DHT22;27892;52.378;13.122;2022-08-21T02:12:08;22.20;80.00
42227;DHT22;27892;52.378;13.122;2022-08-21T02:14:34;22.20;80.10
42227;DHT22;27892;52.378;13.122;2022-08-21T02:17:00;22.20;80.00
42227;DHT22;27892;52.378;13.122;2022-08-21T02:19:26;22.10;80.00
42227;DHT22;27892;52.378;13.122;2022-08-21T02:21:52;22.10;79.80
42227;DHT22;27892;52.378;13.122;2022-08-21T02:24:17;22.00;79.40
42227;DHT22;27892;52.378;13.122;2022-08-21T02:26:43;22.00;79.50
42227;DHT22;27892;52.378;13.122;2022-08-21T02:29:08;22.00;79.60
42227;DHT22;27892;52.378;13.122;2022-08-21T02:31:34;21.90;79.60
42227;DHT22;27892;52.378;13.122;2022-08-21T02:34:18;21.90;79.70
42227;DHT22;27892;52.378;13.122;2022-08-21T02:37:03;21.80;79.50
42227;DHT22;27892;52.378;13.122;2022-08-21T02:39:47;21.80;79.50
42227;DHT22;27892;52.378;13.122;2022-08-21T02:42:31;21.80;79.40
42227;DHT22;27892;52.378;13.122;2022-08-21T02:45:16;21.70;79.30
42227;DHT22;27892;52.378;13.122;2022-08-21T02:48:04;21.70;79.50
42227;DHT22;27892;52.378;13.122;2022-08-21T02:50:55;21.70;80.50
42227;DHT22;27892;52.378;13.122;2022-08-21T02:53:40;21.70;80.00
42227;DHT22;27892;52.378;13.122;2022-08-21T02:56:25;21.70;79.80
42227;DHT22;27892;52.378;13.122;2022-08-21T02:58:51;21.70;79.70
42227;DHT22;27892;52.378;13.122;2022-08-21T03:01:18;21.70;79.60
42227;DHT22;27892;52.378;13.122;2022-08-21T03:03:45;21.70;79.70
42227;DHT22;27892;52.378;13.122;2022-08-21T03:06:14;21.70;79.80
42227;DHT22;27892;52.378;13.122;2022-08-21T03:08:40;21.70;79.50
42227;DHT22;27892;52.378;13.122;2022-08-21T03:11:07;21.70;79.50
42227;DHT22;27892;52.378;13.122;2022-08-21T03:13:33;21.70;79.40
42227;DHT22;27892;52.378;13.122;2022-08-21T03:15:59;21.70;79.10
42227;DHT22;27892;52.378;13.122;2022-08-21T03:18:24;21.70;78.70
42227;DHT22;27892;52.378;13.122;2022-08-21T03:20:50;21.70;78.40
42227;DHT22;27892;52.378;13.122;2022-08-21T03:23:17;21.70;78.00
42227;DHT22;27892;52.378;13.122;2022-08-21T03:25:44;21.60;77.60
42227;DHT22;27892;52.378;13.122;2022-08-21T03:28:12;21.60;77.40
42227;DHT22;27892;52.378;13.122;2022-08-21T03:30:39;21.60;77.30
42227;DHT22;27892;52.378;13.122;2022-08-21T03:33:05;21.60;77.10
42227;DHT22;27892;52.378;13.122;2022-08-21T03:35:31;21.60;77.10
42227;DHT22;27892;52.378;13.122;2022-08-21T03:37:56;21.60;76.80
42227;DHT22;27892;52.378;13.122;2022-08-21T03:40:22;21.50;76.40
42227;DHT22;27892;52.378;13.122;2022-08-21T03:42:49;21.50;76.50
42227;DHT22;27892;52.378;13.122;2022-08-21T03:45:17;21.40;77.10
42227;DHT22;27892;52.378;13.122;2022-08-21T03:48:00;21.40;76.50
42227;DHT22;27892;52.378;13.122;2022-08-21T03:50:30;21.40;76.80
42227;DHT22;27892;52.378;13.122;2022-08-21T03:52:57;21.30;76.90
42227;DHT22;27892;52.378;13.122;2022-08-21T03:55:23;21.30;77.00
42227;DHT22;27892;52.378;13.122;2022-08-21T03:57:49;21.30;76.90
42227;DHT22;27892;52.378;13.122;2022-08-21T04:00:16;21.20;76.90
42227;DHT22;27892;52.378;13.122;2022-08-21T04:02:42;21.20;77.10
42227;DHT22;27892;52.378;13.122;2022-08-21T04:05:11;21.20;77.00
42227;DHT22;27892;52.378;13.122;2022-08-21T04:07:37;21.10;76.90
42227;DHT22;27892;52.378;13.122;2022-08-21T04:10:04;21.10;76.70
42227;DHT22;27892;52.378;13.122;2022-08-21T04:12:31;21.10;76.30
42227;DHT22;27892;52.378;13.122;2022-08-21T04:14:57;21.00;76.10
42227;DHT22;27892;52.378;13.122;2022-08-21T04:17:23;21.00;76.10
42227;DHT22;27892;52.378;13.122;2022-08-21T04:19:49;21.00;76.00
42227;DHT22;27892;52.378;13.122;2022-08-21T04:22:16;21.00;76.10
42227;DHT22;27892;52.378;13.122;2022-08-21T04:24:41;21.00;76.00
42227;DHT22;27892;52.378;13.122;2022-08-21T04:27:07;21.00;75.80
42227;DHT22;27892;52.378;13.122;2022-08-21T04:29:33;20.90;75.50
42227;DHT22;27892;52.378;13.122;2022-08-21T04:31:58;20.90;75.80
42227;DHT22;27892;52.378;13.122;2022-08-21T04:34:24;20.90;75.70
42227;DHT22;27892;52.378;13.122;2022-08-21T04:36:50;20.90;75.70
42227;DHT22;27892;52.378;13.122;2022-08-21T04:39:16;20.90;75.50
42227;DHT22;27892;52.378;13.122;2022-08-21T04:41:41;21.00;75.50
42227;DHT22;27892;52.378;13.122;2022-08-21T04:44:07;21.00;75.50
42227;DHT22;27892;52.378;13.122;2022-08-21T04:46:34;21.00;75.60
42227;DHT22;27892;52.378;13.122;2022-08-21T04:48:59;21.00;75.80
42227;DHT22;27892;52.378;13.122;2022-08-21T04:51:32;21.00;75.90
42227;DHT22;27892;52.378;13.122;2022-08-21T04:56:36;21.10;76.10
42227;DHT22;27892;52.378;13.122;2022-08-21T04:59:06;21.10;76.10
42227;DHT22;27892;52.378;13.122;2022-08-21T05:01:37;21.20;75.60
42227;DHT22;27892;52.378;13.122;2022-08-21T05:04:06;21.20;75.50
42227;DHT22;27892;52.378;13.122;2022-08-21T05:06:35;21.20;75.30
42227;DHT22;27892;52.378;13.122;2022-08-21T05:09:03;21.20;75.10
42227;DHT22;27892;52.378;13.122;2022-08-21T05:11:32;21.30;75.10
42227;DHT22;27892;52.378;13.122;2022-08-21T05:13:58;21.30;75.00
42227;DHT22;27892;52.378;13.122;2022-08-21T05:16:24;21.30;74.80
42227;DHT22;27892;52.378;13.122;2022-08-21T05:18:50;21.30;74.80
42227;DHT22;27892;52.378;13.122;2022-08-21T05:21:16;21.30;74.80
42227;DHT22;27892;52.378;13.122;2022-08-21T05:23:41;21.40;74.70
42227;DHT22;27892;52.378;13.122;2022-08-21T05:26:08;21.40;74.50
42227;DHT22;27892;52.378;13.122;2022-08-21T05:28:34;21.50;74.40
42227;DHT22;27892;52.378;13.122;2022-08-21T05:30:59;21.50;74.40
42227;DHT22;27892;52.378;13.122;2022-08-21T05:33:25;21.60;74.60
42227;DHT22;27892;52.378;13.122;2022-08-21T05:35:52;21.60;74.80
42227;DHT22;27892;52.378;13.122;2022-08-21T05:38:18;21.60;74.90
42227;DHT22;27892;52.378;13.122;2022-08-21T05:40:45;21.60;75.00
42227;DHT22;27892;52.378;13.122;2022-08-21T05:43:11;21.70;75.20
42227;DHT22;27892;52.378;13.122;2022-08-21T05:45:36;21.70;74.80
42227;DHT22;27892;52.378;13.122;2022-08-21T05:48:28;21.80;74.80
42227;DHT22;27892;52.378;13.122;2022-08-21T05:50:54;21.90;74.20
42227;DHT22;27892;52.378;13.122;2022-08-21T05:53:21;21.90;74.70
42227;DHT22;27892;52.378;13.122;2022-08-21T05:55:47;22.00;73.90
42227;DHT22;27892;52.378;13.122;2022-08-21T05:58:15;22.00;73.70
42227;DHT22;27892;52.378;13.122;2022-08-21T06:00:42;22.10;73.60
42227;DHT22;27892;52.378;13.122;2022-08-21T06:03:13;22.20;73.40
42227;DHT22;27892;52.378;13.122;2022-08-21T06:05:40;22.30;73.40
42227;DHT22;27892;52.378;13.122;2022-08-21T06:08:06;22.30;73.60
42227;DHT22;27892;52.378;13.122;2022-08-21T06:10:32;22.40;72.50
42227;DHT22;27892;52.378;13.122;2022-08-21T06:12:57;22.40;72.60
42227;DHT22;27892;52.378;13.122;2022-08-21T06:15:23;22.50;72.00
42227;DHT22;27892;52.378;13.122;2022-08-21T06:17:49;22.50;71.50
42227;DHT22;27892;52.378;13.122;2022-08-21T06:20:14;22.50;71.10
42227;DHT22;27892;52.378;13.122;2022-08-21T06:22:40;22.60;71.20
42227;DHT22;27892;52.378;13.122;2022-08-21T06:25:06;22.60;70.80
42227;DHT22;27892;52.378;13.122;2022-08-21T06:27:31;22.60;70.40
42227;DHT22;27892;52.378;13.122;2022-08-21T06:29:57;22.70;70.20
42227;DHT22;27892;52.378;13.122;2022-08-21T06:32:23;22.80;70.20
42227;DHT22;27892;52.378;13.122;2022-08-21T06:34:48;22.90;69.10
42227;DHT22;27892;52.378;13.122;2022-08-21T06:37:14;23.00;68.60
42227;DHT22;27892;52.378;13.122;2022-08-21T06:39:40;23.10;68.40
42227;DHT22;27892;52.378;13.122;2022-08-21T06:42:05;23.20;67.40
42227;DHT22;27892;52.378;13.122;2022-08-21T06:44:31;23.30;67.60
42227;DHT22;27892;52.378;13.122;2022-08-21T06:46:57;23.50;67.20
42227;DHT22;27892;52.378;13.122;2022-08-21T06:49:22;23.70;67.10
42227;DHT22;27892;52.378;13.122;2022-08-21T06:51:48;23.80;66.30
42227;DHT22;27892;52.378;13.122;2022-08-21T06:54:14;24.10;65.80
42227;DHT22;27892;52.378;13.122;2022-08-21T06:56:39;24.50;65.30
42227;DHT22;27892;52.378;13.122;2022-08-21T06:59:05;25.00;63.80
42227;DHT22;27892;52.378;13.122;2022-08-21T07:01:31;25.60;61.50
42227;DHT22;27892;52.378;13.122;2022-08-21T07:03:57;26.00;59.60
42227;DHT22;27892;52.378;13.122;2022-08-21T07:06:23;26.40;58.40
42227;DHT22;27892;52.378;13.122;2022-08-21T07:08:48;26.70;56.60
42227;DHT22;27892;52.378;13.122;2022-08-21T07:11:20;27.10;56.60
42227;DHT22;27892;52.378;13.122;2022-08-21T07:13:46;27.50;55.20
42227;DHT22;27892;52.378;13.122;2022-08-21T07:16:12;28.10;54.50
42227;DHT22;27892;52.378;13.122;2022-08-21T07:18:37;28.60;52.90
42227;DHT22;27892;52.378;13.122;2022-08-21T07:21:05;29.00;51.60
42227;DHT22;27892;52.378;13.122;2022-08-21T07:23:40;29.20;50.10
42227;DHT22;27892;52.378;13.122;2022-08-21T07:26:07;29.20;49.50
42227;DHT22;27892;52.378;13.122;2022-08-21T07:28:33;29.20;49.50
42227;DHT22;27892;52.378;13.122;2022-08-21T07:31:01;29.40;49.20
42227;DHT22;27892;52.378;13.122;2022-08-21T07:33:28;29.60;48.60
42227;DHT22;27892;52.378;13.122;2022-08-21T07:35:54;29.70;47.90
42227;DHT22;27892;52.378;13.122;2022-08-21T07:38:20;29.80;47.90
42227;DHT22;27892;52.378;13.122;2022-08-21T07:40:47;30.30;47.00
42227;DHT22;27892;52.378;13.122;2022-08-21T07:43:14;30.90;45.60
42227;DHT22;27892;52.378;13.122;2022-08-21T07:45:42;31.50;44.40
42227;DHT22;27892;52.378;13.122;2022-08-21T07:48:08;32.00;43.50
42227;DHT22;27892;52.378;13.122;2022-08-21T07:50:33;32.60;42.10
42227;DHT22;27892;52.378;13.122;2022-08-21T07:52:59;33.20;40.40
42227;DHT22;27892;52.378;13.122;2022-08-21T07:55:25;33.70;39.60
42227;DHT22;27892;52.378;13.122;2022-08-21T07:57:50;33.90;38.30
42227;DHT22;27892;52.378;13.122;2022-08-21T08:00:20;34.10;38.10
42227;DHT22;27892;52.378;13.122;2022-08-21T08:02:49;34.30;37.20
42227;DHT22;27892;52.378;13.122;2022-08-21T08:05:17;34.40;37.40
42227;DHT22;27892;52.378;13.122;2022-08-21T08:07:43;34.40;36.10
42227;DHT22;27892;52.378;13.122;2022-08-21T08:10:10;34.00;36.40
42227;DHT22;27892;52.378;13.122;2022-08-21T08:12:38;33.60;36.80
42227;DHT22;27892;52.378;13.122;2022-08-21T08:15:07;33.10;37.30
42227;DHT22;27892;52.378;13.122;2022-08-21T08:17:33;32.30;38.90
42227;DHT22;27892;52.378;13.122;2022-08-21T08:19:59;31.40;39.60
42227;DHT22;27892;52.378;13.122;2022-08-21T08:22:26;30.60;40.80
42227;DHT22;27892;52.378;13.122;2022-08-21T08:24:53;30.00;42.10
42227;DHT22;27892;52.378;13.122;2022-08-21T08:27:19;29.50;43.60
42227;DHT22;27892;52.378;13.122;2022-08-21T08:29:46;29.20;44.40
42227;DHT22;27892;52.378;13.122;2022-08-21T08:32:12;29.10;44.70
42227;DHT22;27892;52.378;13.122;2022-08-21T08:34:38;29.00;45.10
42227;DHT22;27892;52.378;13.122;2022-08-21T08:37:05;28.90;45.20
42227;DHT22;27892;52.378;13.122;2022-08-21T08:39:31;28.70;45.30
42227;DHT22;27892;52.378;13.122;2022-08-21T08:42:06;28.60;45.90
42227;DHT22;27892;52.378;13.122;2022-08-21T08:44:33;28.60;46.30
42227;DHT22;27892;52.378;13.122;2022-08-21T08:47:01;28.70;46.20
42227;DHT22;27892;52.378;13.122;2022-08-21T08:49:33;28.90;45.80
42227;DHT22;27892;52.378;13.122;2022-08-21T08:54:39;29.30;44.70
42227;DHT22;27892;52.378;13.122;2022-08-21T08:57:10;29.20;43.10
42227;DHT22;27892;52.378;13.122;2022-08-21T08:59:49;29.10;43.90
42227;DHT22;27892;52.378;13.122;2022-08-21T09:02:16;29.00;43.90
42227;DHT22;27892;52.378;13.122;2022-08-21T09:04:44;29.00;45.00
42227;DHT22;27892;52.378;13.122;2022-08-21T09:10:05;28.80;44.50
42227;DHT22;27892;52.378;13.122;2022-08-21T09:15:32;28.30;44.00
42227;DHT22;27892;52.378;13.122;2022-08-21T09:18:17;28.10;44.40
42227;DHT22;27892;52.378;13.122;2022-08-21T09:21:04;28.00;44.50
42227;DHT22;27892;52.378;13.122;2022-08-21T09:23:46;27.90;45.00
42227;DHT22;27892;52.378;13.122;2022-08-21T09:26:20;27.80;45.40
42227;DHT22;27892;52.378;13.122;2022-08-21T09:28:53;27.70;45.00
42227;DHT22;27892;52.378;13.122;2022-08-21T09:31:34;27.60;45.90
42227;DHT22;27892;52.378;13.122;2022-08-21T09:34:03;27.60;46.30
42227;DHT22;27892;52.378;13.122;2022-08-21T09:36:50;27.60;46.40
42227;DHT22;27892;52.378;13.122;2022-08-21T09:39:27;27.60;46.20
42227;DHT22;27892;52.378;13.122;2022-08-21T09:42:02;27.60;46.20
42227;DHT22;27892;52.378;13.122;2022-08-21T09:44:32;27.70;47.00
42227;DHT22;27892;52.378;13.122;2022-08-21T09:46:59;27.70;46.70
42227;DHT22;27892;52.378;13.122;2022-08-21T09:49:37;27.80;46.00
42227;DHT22;27892;52.378;13.122;2022-08-21T09:52:12;28.00;46.20
42227;DHT22;27892;52.378;13.122;2022-08-21T09:54:40;28.10;45.50
42227;DHT22;27892;52.378;13.122;2022-08-21T09:59:53;28.40;44.10
42227;DHT22;27892;52.378;13.122;2022-08-21T10:02:34;28.50;44.10
42227;DHT22;27892;52.378;13.122;2022-08-21T10:07:30;28.70;44.40
42227;DHT22;27892;52.378;13.122;2022-08-21T10:10:29;28.80;44.50
42227;DHT22;27892;52.378;13.122;2022-08-21T10:21:01;29.00;44.50
42227;DHT22;27892;52.378;13.122;2022-08-21T10:23:49;29.10;43.50
42227;DHT22;27892;52.378;13.122;2022-08-21T10:26:37;29.30;43.30
42227;DHT22;27892;52.378;13.122;2022-08-21T10:29:31;29.40;44.20
42227;DHT22;27892;52.378;13.122;2022-08-21T10:40:30;30.10;42.00
42227;DHT22;27892;52.378;13.122;2022-08-21T10:46:02;30.10;41.20
42227;DHT22;27892;52.378;13.122;2022-08-21T10:51:16;30.10;42.00
42227;DHT22;27892;52.378;13.122;2022-08-21T10:53:52;30.10;41.30
42227;DHT22;27892;52.378;13.122;2022-08-21T10:56:27;30.10;42.30
42227;DHT22;27892;52.378;13.122;2022-08-21T11:07:10;30.60;40.30
42227;DHT22;27892;52.378;13.122;2022-08-21T11:09:37;30.60;38.70
42227;DHT22;27892;52.378;13.122;2022-08-21T11:12:19;30.70;38.20
42227;DHT22;27892;52.378;13.122;2022-08-21T11:15:00;30.90;37.60
42227;DHT22;27892;52.378;13.122;2022-08-21T11:17:52;30.90;38.20
42227;DHT22;27892;52.378;13.122;2022-08-21T11:20:49;31.00;38.60
42227;DHT22;27892;52.378;13.122;2022-08-21T11:23:21;31.10;38.10
42227;DHT22;27892;52.378;13.122;2022-08-21T11:26:05;31.40;38.00
42227;DHT22;27892;52.378;13.122;2022-08-21T11:28:37;31.90;36.40
42227;DHT22;27892;52.378;13.122;2022-08-21T11:39:44;33.00;34.60
42227;DHT22;27892;52.378;13.122;2022-08-21T11:45:31;33.40;33.50
42227;DHT22;27892;52.378;13.122;2022-08-21T11:48:10;33.50;32.40
42227;DHT22;27892;52.378;13.122;2022-08-21T11:50:38;33.60;33.00
42227;DHT22;27892;52.378;13.122;2022-08-21T11:53:21;33.70;33.40
42227;DHT22;27892;52.378;13.122;2022-08-21T11:55:55;33.80;33.90
42227;DHT22;27892;52.378;13.122;2022-08-21T12:00:57;33.90;33.00
42227;DHT22;27892;52.378;13.122;2022-08-21T12:03:34;33.90;34.00
42227;DHT22;27892;52.378;13.122;2022-08-21T12:14:12;33.50;34.50
42227;DHT22;27892;52.378;13.122;2022-08-21T12:16:46;33.30;34.70
42227;DHT22;27892;52.378;13.122;2022-08-21T12:24:40;32.20;36.20
42227;DHT22;27892;52.378;13.122;2022-08-21T12:27:27;32.10;36.30
42227;DHT22;27892;52.378;13.122;2022-08-21T12:30:18;32.20;35.30
42227;DHT22;27892;52.378;13.122;2022-08-21T12:32:46;32.30;36.20
42227;DHT22;27892;52.378;13.122;2022-08-21T12:35:23;32.50;35.60
42227;DHT22;27892;52.378;13.122;2022-08-21T12:41:09;32.90;35.10
42227;DHT22;27892;52.378;13.122;2022-08-21T12:43:33;33.00;35.60
42227;DHT22;27892;52.378;13.122;2022-08-21T12:46:00;33.20;35.00
42227;DHT22;27892;52.378;13.122;2022-08-21T12:54:53;33.40;33.30
42227;DHT22;27892;52.378;13.122;2022-08-21T12:57:24;32.70;33.90
42227;DHT22;27892;52.378;13.122;2022-08-21T12:59:59;32.50;36.00
42227;DHT22;27892;52.378;13.122;2022-08-21T13:02:32;32.60;35.40
42227;DHT22;27892;52.378;13.122;2022-08-21T13:05:03;32.90;34.70
42227;DHT22;27892;52.378;13.122;2022-08-21T13:07:32;33.00;33.30
42227;DHT22;27892;52.378;13.122;2022-08-21T13:10:16;32.80;33.90
42227;DHT22;27892;52.378;13.122;2022-08-21T13:12:43;32.50;34.90
42227;DHT22;27892;52.378;13.122;2022-08-21T13:15:11;32.60;35.30
42227;DHT22;27892;52.378;13.122;2022-08-21T13:17:40;32.70;36.00
42227;DHT22;27892;52.378;13.122;2022-08-21T13:22:44;33.20;34.60
42227;DHT22;27892;52.378;13.122;2022-08-21T13:25:12;33.50;35.30
42227;DHT22;27892;52.378;13.122;2022-08-21T13:27:38;33.50;33.40
42227;DHT22;27892;52.378;13.122;2022-08-21T13:30:11;33.50;33.60
42227;DHT22;27892;52.378;13.122;2022-08-21T13:32:44;33.60;33.90
42227;DHT22;27892;52.378;13.122;2022-08-21T13:35:17;33.70;33.80
42227;DHT22;27892;52.378;13.122;2022-08-21T13:37:45;33.40;33.60
42227;DHT22;27892;52.378;13.122;2022-08-21T13:40:17;33.00;34.20
42227;DHT22;27892;52.378;13.122;2022-08-21T13:42:45;32.70;34.10
42227;DHT22;27892;52.378;13.122;2022-08-21T13:45:27;32.30;34.00
42227;DHT22;27892;52.378;13.122;2022-08-21T13:47:53;32.00;35.40
42227;DHT22;27892;52.378;13.122;2022-08-21T13:50:22;31.80;35.90
42227;DHT22;27892;52.378;13.122;2022-08-21T13:52:56;31.80;36.30
42227;DHT22;27892;52.378;13.122;2022-08-21T13:55:22;31.70;37.50
42227;DHT22;27892;52.378;13.122;2022-08-21T13:57:59;31.50;36.20
42227;DHT22;27892;52.378;13.122;2022-08-21T14:00:27;31.50;37.00
42227;DHT22;27892;52.378;13.122;2022-08-21T14:03:01;31.40;36.70
42227;DHT22;27892;52.378;13.122;2022-08-21T14:05:29;31.20;37.70
42227;DHT22;27892;52.378;13.122;2022-08-21T14:08:10;30.90;37.60
42227;DHT22;27892;52.378;13.122;2022-08-21T14:10:43;30.60;38.40
42227;DHT22;27892;52.378;13.122;2022-08-21T14:13:29;30.20;38.70
42227;DHT22;27892;52.378;13.122;2022-08-21T14:16:00;29.90;39.50
42227;DHT22;27892;52.378;13.122;2022-08-21T14:18:27;29.60;38.70
42227;DHT22;27892;52.378;13.122;2022-08-21T14:21:04;29.50;39.60
42227;DHT22;27892;52.378;13.122;2022-08-21T14:23:30;29.50;41.00
42227;DHT22;27892;52.378;13.122;2022-08-21T14:26:00;29.30;40.70
42227;DHT22;27892;52.378;13.122;2022-08-21T14:28:28;29.10;41.60
42227;DHT22;27892;52.378;13.122;2022-08-21T14:30:56;29.00;42.30
42227;DHT22;27892;52.378;13.122;2022-08-21T14:33:26;28.90;42.70
42227;DHT22;27892;52.378;13.122;2022-08-21T14:35:53;28.90;42.70
42227;DHT22;27892;52.378;13.122;2022-08-21T14:38:21;28.90;42.70
42227;DHT22;27892;52.378;13.122;2022-08-21T14:40:50;28.80;42.50
42227;DHT22;27892;52.378;13.122;2022-08-21T14:43:17;28.80;42.50
42227;DHT22;27892;52.378;13.122;2022-08-21T14:45:43;28.80;43.10
42227;DHT22;27892;52.378;13.122;2022-08-21T14:48:09;28.70;42.90
42227;DHT22;27892;52.378;13.122;2022-08-21T14:50:35;28.60;43.10
42227;DHT22;27892;52.378;13.122;2022-08-21T14:53:01;28.50;43.30
42227;DHT22;27892;52.378;13.122;2022-08-21T14:55:27;28.50;43.40
42227;DHT22;27892;52.378;13.122;2022-08-21T14:57:54;28.50;43.70
42227;DHT22;27892;52.378;13.122;2022-08-21T15:00:23;28.50;43.60
42227;DHT22;27892;52.378;13.122;2022-08-21T15:02:49;28.50;44.30
42227;DHT22;27892;52.378;13.122;2022-08-21T15:05:16;28.50;43.90
42227;DHT22;27892;52.378;13.122;2022-08-21T15:07:42;28.50;44.80
42227;DHT22;27892;52.378;13.122;2022-08-21T15:10:10;28.50;44.30
42227;DHT22;27892;52.378;13.122;2022-08-21T15:12:36;28.50;43.60
42227;DHT22;27892;52.378;13.122;2022-08-21T15:15:05;28.40;43.80
42227;DHT22;27892;52.378;13.122;2022-08-21T15:17:31;28.40;44.00
42227;DHT22;27892;52.378;13.122;2022-08-21T15:19:56;28.40;43.50
42227;DHT22;27892;52.378;13.122;2022-08-21T15:22:22;28.40;43.50
42227;DHT22;27892;52.378;13.122;2022-08-21T15:24:47;28.40;43.90
42227;DHT22;27892;52.378;13.122;2022-08-21T15:27:14;28.40;43.80
42227;DHT22;27892;52.378;13.122;2022-08-21T15:29:42;28.40;44.40
42227;DHT22;27892;52.378;13.122;2022-08-21T15:32:21;28.40;44.00
42227;DHT22;27892;52.378;13.122;2022-08-21T15:34:49;28.30;44.00
42227;DHT22;27892;52.378;13.122;2022-08-21T15:37:15;28.30;43.80
42227;DHT22;27892;52.378;13.122;2022-08-21T15:39:40;28.30;43.00
42227;DHT22;27892;52.378;13.122;2022-08-21T15:42:06;28.30;42.90
42227;DHT22;27892;52.378;13.122;2022-08-21T15:44:32;28.20;41.90
42227;DHT22;27892;52.378;13.122;2022-08-21T15:46:58;28.20;42.10
42227;DHT22;27892;52.378;13.122;2022-08-21T15:49:24;28.20;42.90
42227;DHT22;27892;52.378;13.122;2022-08-21T15:51:50;28.20;44.20
42227;DHT22;27892;52.378;13.122;2022-08-21T15:54:16;28.30;43.90
42227;DHT22;27892;52.378;13.122;2022-08-21T15:56:45;28.30;43.70
42227;DHT22;27892;52.378;13.122;2022-08-21T15:59:16;28.30;43.50
42227;DHT22;27892;52.378;13.122;2022-08-21T16:01:44;28.20;42.60
42227;DHT22;27892;52.378;13.122;2022-08-21T16:04:12;28.30;42.40
42227;DHT22;27892;52.378;13.122;2022-08-21T16:07:08;28.30;42.70
42227;DHT22;27892;52.378;13.122;2022-08-21T16:09:35;28.30;42.20
42227;DHT22;27892;52.378;13.122;2022-08-21T16:12:01;28.30;42.60
42227;DHT22;27892;52.378;13.122;2022-08-21T16:14:28;28.30;42.00
42227;DHT22;27892;52.378;13.122;2022-08-21T16:16:54;28.20;42.20
42227;DHT22;27892;52.378;13.122;2022-08-21T16:19:20;28.20;42.00
42227;DHT22;27892;52.378;13.122;2022-08-21T16:21:46;28.10;42.20
42227;DHT22;27892;52.378;13.122;2022-08-21T16:24:12;28.10;42.70
42227;DHT22;27892;52.378;13.122;2022-08-21T16:26:37;28.00;42.00
42227;DHT22;27892;52.378;13.122;2022-08-21T16:29:04;28.00;42.60
42227;DHT22;27892;52.378;13.122;2022-08-21T16:31:32;28.00;41.20
42227;DHT22;27892;52.378;13.122;2022-08-21T16:33:58;28.00;42.10
42227;DHT22;27892;52.378;13.122;2022-08-21T16:36:25;28.00;43.00
42227;DHT22;27892;52.378;13.122;2022-08-21T16:38:51;28.00;44.00
42227;DHT22;27892;52.378;13.122;2022-08-21T16:41:20;27.90;44.10
42227;DHT22;27892;52.378;13.122;2022-08-21T16:43:47;27.90;43.80
42227;DHT22;27892;52.378;13.122;2022-08-21T16:46:14;27.80;43.10
42227;DHT22;27892;52.378;13.122;2022-08-21T16:48:41;27.80;42.10
42227;DHT22;27892;52.378;13.122;2022-08-21T16:51:10;27.80;43.20
42227;DHT22;27892;52.378;13.122;2022-08-21T16:53:36;27.80;44.20
42227;DHT22;27892;52.378;13.122;2022-08-21T16:56:02;27.80;44.20